sensor_id;sensor_type;location;lat;lon;timestamp;P1;durP1;ratioP1;P2;durP2;ratioP2
14768;SDS011;7476;49.404;11.152;2024-02-16T00:00:58;5.50;;;4.47;;
14768;SDS011;7476;49.404;11.152;2024-02-16T00:03:25;6.43;;;4.73;;
14768;SDS011;7476;49.404;11.152;2024-02-16T00:05:51;5.20;;;4.70;;
14768;SDS011;7476;49.404;11.152;2024-02-16T00:08:18;6.77;;;4.70;;
14768;SDS011;7476;49.404;11.152;2024-02-16T00:10:46;6.10;;;4.80;;
14768;SDS011;7476;49.404;11.152;2024-02-16T00:13:13;5.83;;;4.97;;
14768;SDS011;7476;49.404;11.152;2024-02-16T00:15:40;6.30;;;4.90;;
14768;SDS011;7476;49.404;11.152;2024-02-16T00:18:06;7.53;;;5.00;;
14768;SDS011;7476;49.404;11.152;2024-02-16T00:20:33;7.53;;;5.00;;
14768;SDS011;7476;49.404;11.152;2024-02-16T00:23:00;5.70;;;4.43;;
14768;SDS011;7476;49.404;11.152;2024-02-16T00:25:27;6.33;;;4.60;;
14768;SDS011;7476;49.404;11.152;2024-02-16T00:27:55;3.90;;;3.60;;
14768;SDS011;7476;49.404;11.152;2024-02-16T00:30:21;5.10;;;4.60;;
14768;SDS011;7476;49.404;11.152;2024-02-16T00:32:48;5.70;;;4.10;;
14768;SDS011;7476;49.404;11.152;2024-02-16T00:35:15;7.27;;;4.80;;
14768;SDS011;7476;49.404;11.152;2024-02-16T00:37:42;5.27;;;4.10;;
14768;SDS011;7476;49.404;11.152;2024-02-16T00:40:11;5.43;;;4.30;;
14768;SDS011;7476;49.404;11.152;2024-02-16T00:42:38;4.63;;;3.93;;
14768;SDS011;7476;49.404;11.152;2024-02-16T00:45:07;6.83;;;4.30;;
14768;SDS011;7476;49.404;11.152;2024-02-16T00:47:34;5.90;;;4.00;;
14768;SDS011;7476;49.404;11.152;2024-02-16T00:50:01;3.90;;;3.40;;
14768;SDS011;7476;49.404;11.152;2024-02-16T00:52:30;4.50;;;3.43;;
14768;SDS011;7476;49.404;11.152;2024-02-16T00:54:56;3.93;;;3.07;;
14768;SDS011;7476;49.404;11.152;2024-02-16T00:57:23;4.90;;;3.20;;
14768;SDS011;7476;49.404;11.152;2024-02-16T00:59:50;3.70;;;3.27;;
14768;SDS011;7476;49.404;11.152;2024-02-16T01:02:18;5.13;;;3.70;;
14768;SDS011;7476;49.404;11.152;2024-02-16T01:04:44;3.90;;;3.40;;
14768;SDS011;7476;49.404;11.152;2024-02-16T01:07:12;3.27;;;2.97;;
14768;SDS011;7476;49.404;11.152;2024-02-16T01:09:39;3.83;;;3.13;;
14768;SDS011;7476;49.404;11.152;2024-02-16T01:12:05;3.50;;;3.13;;
14768;SDS011;7476;49.404;11.152;2024-02-16T01:14:33;3.83;;;3.00;;
14768;SDS011;7476;49.404;11.152;2024-02-16T01:16:59;3.57;;;2.90;;
14768;SDS011;7476;49.404;11.152;2024-02-16T01:19:27;3.87;;;2.87;;
14768;SDS011;7476;49.404;11.152;2024-02-16T01:21:54;3.70;;;2.60;;
14768;SDS011;7476;49.404;11.152;2024-02-16T01:24:22;4.53;;;3.03;;
14768;SDS011;7476;49.404;11.152;2024-02-16T01:26:49;4.63;;;3.30;;
14768;SDS011;7476;49.404;11.152;2024-02-16T01:29:16;3.53;;;2.93;;
14768;SDS011;7476;49.404;11.152;2024-02-16T01:31:42;3.40;;;2.93;;
14768;SDS011;7476;49.404;11.152;2024-02-16T01:34:09;4.77;;;3.03;;
14768;SDS011;7476;49.404;11.152;2024-02-16T01:36:37;5.33;;;3.03;;
14768;SDS011;7476;49.404;11.152;2024-02-16T01:39:03;4.63;;;3.00;;
14768;SDS011;7476;49.404;11.152;2024-02-16T01:41:31;4.70;;;2.70;;
14768;SDS011;7476;49.404;11.152;2024-02-16T01:43:58;3.37;;;3.07;;
14768;SDS011;7476;49.404;11.152;2024-02-16T01:46:26;3.63;;;2.60;;
14768;SDS011;7476;49.404;11.152;2024-02-16T01:48:52;6.30;;;3.17;;
14768;SDS011;7476;49.404;11.152;2024-02-16T01:51:19;3.77;;;2.70;;
14768;SDS011;7476;49.404;11.152;2024-02-16T01:53:50;3.03;;;2.70;;
14768;SDS011;7476;49.404;11.152;2024-02-16T01:56:16;4.27;;;2.63;;
14768;SDS011;7476;49.404;11.152;2024-02-16T01:58:45;3.87;;;2.80;;
14768;SDS011;7476;49.404;11.152;2024-02-16T02:01:12;3.30;;;2.80;;
14768;SDS011;7476;49.404;11.152;2024-02-16T02:03:39;4.13;;;2.63;;
14768;SDS011;7476;49.404;11.152;2024-02-16T02:06:05;3.50;;;2.70;;
14768;SDS011;7476;49.404;11.152;2024-02-16T02:08:32;3.63;;;2.83;;
14768;SDS011;7476;49.404;11.152;2024-02-16T02:11:00;3.53;;;2.97;;
14768;SDS011;7476;49.404;11.152;2024-02-16T02:13:28;4.27;;;2.80;;
14768;SDS011;7476;49.404;11.152;2024-02-16T02:15:55;5.20;;;2.83;;
14768;SDS011;7476;49.404;11.152;2024-02-16T02:18:23;3.53;;;2.73;;
14768;SDS011;7476;49.404;11.152;2024-02-16T02:20:50;2.90;;;2.60;;
14768;SDS011;7476;49.404;11.152;2024-02-16T02:23:19;3.77;;;2.70;;
14768;SDS011;7476;49.404;11.152;2024-02-16T02:25:46;3.50;;;2.80;;
14768;SDS011;7476;49.404;11.152;2024-02-16T02:28:14;4.40;;;2.77;;
14768;SDS011;7476;49.404;11.152;2024-02-16T02:30:41;2.90;;;2.60;;
14768;SDS011;7476;49.404;11.152;2024-02-16T02:33:08;4.00;;;2.63;;
14768;SDS011;7476;49.404;11.152;2024-02-16T02:35:36;3.23;;;2.73;;
14768;SDS011;7476;49.404;11.152;2024-02-16T02:38:03;4.87;;;3.00;;
14768;SDS011;7476;49.404;11.152;2024-02-16T02:40:31;3.50;;;2.70;;
14768;SDS011;7476;49.404;11.152;2024-02-16T02:42:57;4.07;;;2.97;;
14768;SDS011;7476;49.404;11.152;2024-02-16T02:45:24;3.10;;;2.80;;
14768;SDS011;7476;49.404;11.152;2024-02-16T02:47:51;4.20;;;2.63;;
14768;SDS011;7476;49.404;11.152;2024-02-16T02:50:18;3.80;;;2.87;;
14768;SDS011;7476;49.404;11.152;2024-02-16T02:52:44;4.07;;;2.93;;
14768;SDS011;7476;49.404;11.152;2024-02-16T02:55:11;3.20;;;2.90;;
14768;SDS011;7476;49.404;11.152;2024-02-16T02:57:39;2.93;;;2.63;;
14768;SDS011;7476;49.404;11.152;2024-02-16T03:00:06;3.10;;;2.80;;
14768;SDS011;7476;49.404;11.152;2024-02-16T03:02:36;5.40;;;3.00;;
14768;SDS011;7476;49.404;11.152;2024-02-16T03:05:03;3.87;;;2.97;;
14768;SDS011;7476;49.404;11.152;2024-02-16T03:07:30;6.57;;;3.13;;
14768;SDS011;7476;49.404;11.152;2024-02-16T03:09:58;3.47;;;2.90;;
14768;SDS011;7476;49.404;11.152;2024-02-16T03:12:25;3.20;;;2.67;;
14768;SDS011;7476;49.404;11.152;2024-02-16T03:14:52;3.33;;;2.80;;
14768;SDS011;7476;49.404;11.152;2024-02-16T03:17:19;4.20;;;2.70;;
14768;SDS011;7476;49.404;11.152;2024-02-16T03:19:46;3.37;;;2.73;;
14768;SDS011;7476;49.404;11.152;2024-02-16T03:22:12;3.73;;;3.00;;
14768;SDS011;7476;49.404;11.152;2024-02-16T03:24:39;4.53;;;3.10;;
14768;SDS011;7476;49.404;11.152;2024-02-16T03:27:06;3.93;;;3.00;;
14768;SDS011;7476;49.404;11.152;2024-02-16T03:29:32;3.47;;;3.17;;
14768;SDS011;7476;49.404;11.152;2024-02-16T03:32:00;3.63;;;3.07;;
14768;SDS011;7476;49.404;11.152;2024-02-16T03:34:27;3.50;;;3.10;;
14768;SDS011;7476;49.404;11.152;2024-02-16T03:36:53;4.80;;;3.40;;
14768;SDS011;7476;49.404;11.152;2024-02-16T03:39:20;3.90;;;3.27;;
14768;SDS011;7476;49.404;11.152;2024-02-16T03:41:47;4.97;;;3.70;;
14768;SDS011;7476;49.404;11.152;2024-02-16T03:44:14;5.43;;;3.53;;
14768;SDS011;7476;49.404;11.152;2024-02-16T03:46:41;4.63;;;3.40;;
14768;SDS011;7476;49.404;11.152;2024-02-16T03:49:09;4.30;;;3.33;;
14768;SDS011;7476;49.404;11.152;2024-02-16T03:51:36;4.37;;;3.50;;
14768;SDS011;7476;49.404;11.152;2024-02-16T03:54:03;5.33;;;3.70;;
14768;SDS011;7476;49.404;11.152;2024-02-16T03:56:30;4.73;;;3.70;;
14768;SDS011;7476;49.404;11.152;2024-02-16T03:58:56;4.10;;;3.70;;
14768;SDS011;7476;49.404;11.152;2024-02-16T04:01:23;4.87;;;4.27;;
14768;SDS011;7476;49.404;11.152;2024-02-16T04:03:50;4.10;;;3.70;;
14768;SDS011;7476;49.404;11.152;2024-02-16T04:06:19;6.10;;;4.10;;
14768;SDS011;7476;49.404;11.152;2024-02-16T04:08:46;5.80;;;3.80;;
14768;SDS011;7476;49.404;11.152;2024-02-16T04:11:13;6.07;;;3.33;;
14768;SDS011;7476;49.404;11.152;2024-02-16T04:13:40;5.57;;;3.40;;
14768;SDS011;7476;49.404;11.152;2024-02-16T04:16:07;4.93;;;3.80;;
14768;SDS011;7476;49.404;11.152;2024-02-16T04:18:33;5.33;;;3.60;;
14768;SDS011;7476;49.404;11.152;2024-02-16T04:21:00;4.63;;;3.87;;
14768;SDS011;7476;49.404;11.152;2024-02-16T04:23:28;4.63;;;3.20;;
14768;SDS011;7476;49.404;11.152;2024-02-16T04:25:55;4.33;;;3.53;;
14768;SDS011;7476;49.404;11.152;2024-02-16T04:28:22;5.57;;;3.87;;
14768;SDS011;7476;49.404;11.152;2024-02-16T04:30:49;6.10;;;4.40;;
14768;SDS011;7476;49.404;11.152;2024-02-16T04:33:15;4.50;;;4.00;;
14768;SDS011;7476;49.404;11.152;2024-02-16T04:35:42;5.73;;;4.40;;
14768;SDS011;7476;49.404;11.152;2024-02-16T04:38:11;5.23;;;3.87;;
14768;SDS011;7476;49.404;11.152;2024-02-16T04:40:39;4.63;;;4.10;;
14768;SDS011;7476;49.404;11.152;2024-02-16T04:43:06;4.53;;;4.00;;
14768;SDS011;7476;49.404;11.152;2024-02-16T04:45:33;4.37;;;3.97;;
14768;SDS011;7476;49.404;11.152;2024-02-16T04:48:02;5.90;;;4.27;;
14768;SDS011;7476;49.404;11.152;2024-02-16T04:50:30;4.90;;;3.80;;
14768;SDS011;7476;49.404;11.152;2024-02-16T04:52:57;4.20;;;3.80;;
14768;SDS011;7476;49.404;11.152;2024-02-16T04:55:24;8.43;;;4.77;;
14768;SDS011;7476;49.404;11.152;2024-02-16T04:57:52;6.30;;;5.30;;
14768;SDS011;7476;49.404;11.152;2024-02-16T05:00:18;8.07;;;6.57;;
14768;SDS011;7476;49.404;11.152;2024-02-16T05:02:45;7.67;;;5.87;;
14768;SDS011;7476;49.404;11.152;2024-02-16T05:05:12;6.93;;;5.87;;
14768;SDS011;7476;49.404;11.152;2024-02-16T05:07:40;8.70;;;5.67;;
14768;SDS011;7476;49.404;11.152;2024-02-16T05:10:08;7.83;;;6.00;;
14768;SDS011;7476;49.404;11.152;2024-02-16T05:12:35;6.77;;;5.67;;
14768;SDS011;7476;49.404;11.152;2024-02-16T05:15:04;10.93;;;6.50;;
14768;SDS011;7476;49.404;11.152;2024-02-16T05:17:31;10.10;;;7.30;;
14768;SDS011;7476;49.404;11.152;2024-02-16T05:19:58;11.17;;;8.30;;
14768;SDS011;7476;49.404;11.152;2024-02-16T05:22:25;12.00;;;8.20;;
14768;SDS011;7476;49.404;11.152;2024-02-16T05:24:51;12.33;;;8.70;;
14768;SDS011;7476;49.404;11.152;2024-02-16T05:27:18;10.10;;;8.20;;
14768;SDS011;7476;49.404;11.152;2024-02-16T05:29:45;10.93;;;8.50;;
14768;SDS011;7476;49.404;11.152;2024-02-16T05:32:12;11.33;;;8.80;;
14768;SDS011;7476;49.404;11.152;2024-02-16T05:34:39;10.23;;;7.50;;
14768;SDS011;7476;49.404;11.152;2024-02-16T05:37:07;11.40;;;8.03;;
14768;SDS011;7476;49.404;11.152;2024-02-16T05:39:35;10.90;;;8.10;;
14768;SDS011;7476;49.404;11.152;2024-02-16T05:42:18;13.47;;;8.67;;
14768;SDS011;7476;49.404;11.152;2024-02-16T05:44:46;12.00;;;9.67;;
14768;SDS011;7476;49.404;11.152;2024-02-16T05:47:14;12.73;;;9.20;;
14768;SDS011;7476;49.404;11.152;2024-02-16T05:49:41;10.20;;;9.03;;
14768;SDS011;7476;49.404;11.152;2024-02-16T05:52:08;11.93;;;9.17;;
14768;SDS011;7476;49.404;11.152;2024-02-16T05:54:43;11.47;;;8.07;;
14768;SDS011;7476;49.404;11.152;2024-02-16T05:57:10;10.17;;;7.50;;
14768;SDS011;7476;49.404;11.152;2024-02-16T05:59:37;9.93;;;6.90;;
14768;SDS011;7476;49.404;11.152;2024-02-16T06:02:04;8.47;;;7.40;;
14768;SDS011;7476;49.404;11.152;2024-02-16T06:04:33;9.00;;;7.33;;
14768;SDS011;7476;49.404;11.152;2024-02-16T06:07:00;8.60;;;6.80;;
14768;SDS011;7476;49.404;11.152;2024-02-16T06:09:26;10.47;;;7.53;;
14768;SDS011;7476;49.404;11.152;2024-02-16T06:11:59;10.43;;;7.70;;
14768;SDS011;7476;49.404;11.152;2024-02-16T06:14:29;7.90;;;6.67;;
14768;SDS011;7476;49.404;11.152;2024-02-16T06:16:57;7.83;;;6.43;;
14768;SDS011;7476;49.404;11.152;2024-02-16T06:19:24;7.40;;;6.27;;
14768;SDS011;7476;49.404;11.152;2024-02-16T06:21:52;9.13;;;7.27;;
14768;SDS011;7476;49.404;11.152;2024-02-16T06:24:19;9.13;;;7.10;;
14768;SDS011;7476;49.404;11.152;2024-02-16T06:26:46;9.60;;;7.03;;
14768;SDS011;7476;49.404;11.152;2024-02-16T06:29:13;8.17;;;6.90;;
14768;SDS011;7476;49.404;11.152;2024-02-16T06:31:40;10.70;;;7.37;;
14768;SDS011;7476;49.404;11.152;2024-02-16T06:34:06;10.77;;;7.17;;
14768;SDS011;7476;49.404;11.152;2024-02-16T06:36:33;9.47;;;7.33;;
14768;SDS011;7476;49.404;11.152;2024-02-16T06:39:01;10.23;;;7.60;;
14768;SDS011;7476;49.404;11.152;2024-02-16T06:41:29;10.47;;;8.27;;
14768;SDS011;7476;49.404;11.152;2024-02-16T06:43:55;10.63;;;7.90;;
14768;SDS011;7476;49.404;11.152;2024-02-16T06:46:22;8.70;;;7.70;;
14768;SDS011;7476;49.404;11.152;2024-02-16T06:48:49;11.03;;;7.83;;
14768;SDS011;7476;49.404;11.152;2024-02-16T06:51:17;8.27;;;7.10;;
14768;SDS011;7476;49.404;11.152;2024-02-16T06:53:43;10.97;;;8.47;;
14768;SDS011;7476;49.404;11.152;2024-02-16T06:56:12;14.10;;;10.63;;
14768;SDS011;7476;49.404;11.152;2024-02-16T06:58:38;14.93;;;10.03;;
14768;SDS011;7476;49.404;11.152;2024-02-16T07:01:05;11.00;;;9.20;;
14768;SDS011;7476;49.404;11.152;2024-02-16T07:03:32;14.20;;;9.40;;
14768;SDS011;7476;49.404;11.152;2024-02-16T07:06:01;13.70;;;8.77;;
14768;SDS011;7476;49.404;11.152;2024-02-16T07:08:28;12.33;;;8.80;;
14768;SDS011;7476;49.404;11.152;2024-02-16T07:10:55;9.67;;;7.97;;
14768;SDS011;7476;49.404;11.152;2024-02-16T07:13:23;15.20;;;10.03;;
14768;SDS011;7476;49.404;11.152;2024-02-16T07:15:49;16.57;;;11.43;;
14768;SDS011;7476;49.404;11.152;2024-02-16T07:18:16;13.97;;;11.33;;
14768;SDS011;7476;49.404;11.152;2024-02-16T07:20:43;15.50;;;11.37;;
14768;SDS011;7476;49.404;11.152;2024-02-16T07:23:09;15.97;;;12.13;;
14768;SDS011;7476;49.404;11.152;2024-02-16T07:25:37;16.17;;;11.53;;
14768;SDS011;7476;49.404;11.152;2024-02-16T07:28:04;14.73;;;11.93;;
14768;SDS011;7476;49.404;11.152;2024-02-16T07:30:32;15.83;;;12.03;;
14768;SDS011;7476;49.404;11.152;2024-02-16T07:32:59;17.30;;;12.87;;
14768;SDS011;7476;49.404;11.152;2024-02-16T07:35:26;18.53;;;12.60;;
14768;SDS011;7476;49.404;11.152;2024-02-16T07:37:52;16.07;;;12.37;;
14768;SDS011;7476;49.404;11.152;2024-02-16T07:40:19;15.93;;;12.53;;
14768;SDS011;7476;49.404;11.152;2024-02-16T07:42:46;15.87;;;11.90;;
14768;SDS011;7476;49.404;11.152;2024-02-16T07:45:12;13.90;;;11.47;;
14768;SDS011;7476;49.404;11.152;2024-02-16T07:47:41;16.90;;;11.73;;
14768;SDS011;7476;49.404;11.152;2024-02-16T07:50:08;13.00;;;10.53;;
14768;SDS011;7476;49.404;11.152;2024-02-16T07:52:35;13.83;;;10.63;;
14768;SDS011;7476;49.404;11.152;2024-02-16T07:55:03;12.67;;;10.37;;
14768;SDS011;7476;49.404;11.152;2024-02-16T07:57:30;11.80;;;10.33;;
14768;SDS011;7476;49.404;11.152;2024-02-16T07:59:56;12.23;;;10.50;;
14768;SDS011;7476;49.404;11.152;2024-02-16T08:02:23;14.13;;;11.00;;
14768;SDS011;7476;49.404;11.152;2024-02-16T08:04:51;11.73;;;10.33;;
14768;SDS011;7476;49.404;11.152;2024-02-16T08:07:18;12.57;;;10.30;;
14768;SDS011;7476;49.404;11.152;2024-02-16T08:09:44;11.57;;;9.60;;
14768;SDS011;7476;49.404;11.152;2024-02-16T08:12:11;13.23;;;10.03;;
14768;SDS011;7476;49.404;11.152;2024-02-16T08:14:38;12.73;;;9.57;;
14768;SDS011;7476;49.404;11.152;2024-02-16T08:17:05;11.13;;;9.20;;
14768;SDS011;7476;49.404;11.152;2024-02-16T08:19:32;12.17;;;9.17;;
14768;SDS011;7476;49.404;11.152;2024-02-16T08:22:01;12.23;;;9.00;;
14768;SDS011;7476;49.404;11.152;2024-02-16T08:24:29;10.37;;;9.07;;
14768;SDS011;7476;49.404;11.152;2024-02-16T08:26:57;10.63;;;9.27;;
14768;SDS011;7476;49.404;11.152;2024-02-16T08:29:24;9.73;;;8.73;;
14768;SDS011;7476;49.404;11.152;2024-02-16T08:31:50;8.80;;;7.90;;
14768;SDS011;7476;49.404;11.152;2024-02-16T08:34:17;9.70;;;8.10;;
14768;SDS011;7476;49.404;11.152;2024-02-16T08:36:44;7.80;;;7.00;;
14768;SDS011;7476;49.404;11.152;2024-02-16T08:39:12;9.97;;;7.53;;
14768;SDS011;7476;49.404;11.152;2024-02-16T08:41:39;7.53;;;6.50;;
14768;SDS011;7476;49.404;11.152;2024-02-16T08:44:09;10.40;;;7.00;;
14768;SDS011;7476;49.404;11.152;2024-02-16T08:46:40;7.30;;;6.53;;
14768;SDS011;7476;49.404;11.152;2024-02-16T08:49:07;8.27;;;6.67;;
14768;SDS011;7476;49.404;11.152;2024-02-16T08:51:34;7.50;;;6.13;;
14768;SDS011;7476;49.404;11.152;2024-02-16T08:54:01;8.83;;;7.17;;
14768;SDS011;7476;49.404;11.152;2024-02-16T08:56:30;7.63;;;6.83;;
14768;SDS011;7476;49.404;11.152;2024-02-16T08:59:00;7.10;;;6.20;;
14768;SDS011;7476;49.404;11.152;2024-02-16T09:01:30;8.17;;;6.73;;
14768;SDS011;7476;49.404;11.152;2024-02-16T09:03:57;11.37;;;7.50;;
14768;SDS011;7476;49.404;11.152;2024-02-16T09:06:23;7.33;;;6.50;;
14768;SDS011;7476;49.404;11.152;2024-02-16T09:08:50;7.03;;;6.27;;
14768;SDS011;7476;49.404;11.152;2024-02-16T09:11:17;6.87;;;5.70;;
14768;SDS011;7476;49.404;11.152;2024-02-16T09:13:45;6.93;;;6.20;;
14768;SDS011;7476;49.404;11.152;2024-02-16T09:16:12;7.57;;;6.30;;
14768;SDS011;7476;49.404;11.152;2024-02-16T09:18:38;7.80;;;6.10;;
14768;SDS011;7476;49.404;11.152;2024-02-16T09:21:05;6.53;;;5.83;;
14768;SDS011;7476;49.404;11.152;2024-02-16T09:23:32;7.83;;;6.30;;
14768;SDS011;7476;49.404;11.152;2024-02-16T09:26:00;8.03;;;6.30;;
14768;SDS011;7476;49.404;11.152;2024-02-16T09:28:27;7.63;;;6.07;;
14768;SDS011;7476;49.404;11.152;2024-02-16T09:30:55;6.97;;;6.27;;
14768;SDS011;7476;49.404;11.152;2024-02-16T09:33:22;7.23;;;5.73;;
14768;SDS011;7476;49.404;11.152;2024-02-16T09:35:49;7.23;;;5.83;;
14768;SDS011;7476;49.404;11.152;2024-02-16T09:38:16;7.17;;;5.50;;
14768;SDS011;7476;49.404;11.152;2024-02-16T09:40:43;8.23;;;6.63;;
14768;SDS011;7476;49.404;11.152;2024-02-16T09:43:10;5.67;;;5.03;;
14768;SDS011;7476;49.404;11.152;2024-02-16T09:45:52;6.60;;;5.60;;
14768;SDS011;7476;49.404;11.152;2024-02-16T09:48:21;6.50;;;5.80;;
14768;SDS011;7476;49.404;11.152;2024-02-16T09:50:48;5.60;;;5.10;;
14768;SDS011;7476;49.404;11.152;2024-02-16T09:53:16;7.13;;;5.47;;
14768;SDS011;7476;49.404;11.152;2024-02-16T09:55:44;7.63;;;5.80;;
14768;SDS011;7476;49.404;11.152;2024-02-16T09:58:12;8.13;;;5.73;;
14768;SDS011;7476;49.404;11.152;2024-02-16T10:00:47;6.43;;;5.33;;
14768;SDS011;7476;49.404;11.152;2024-02-16T10:03:22;6.47;;;4.90;;
14768;SDS011;7476;49.404;11.152;2024-02-16T10:05:52;6.17;;;4.80;;
14768;SDS011;7476;49.404;11.152;2024-02-16T10:08:29;8.30;;;5.37;;
14768;SDS011;7476;49.404;11.152;2024-02-16T10:11:00;5.27;;;4.73;;
14768;SDS011;7476;49.404;11.152;2024-02-16T10:13:28;5.90;;;5.10;;
14768;SDS011;7476;49.404;11.152;2024-02-16T10:16:03;5.30;;;4.70;;
14768;SDS011;7476;49.404;11.152;2024-02-16T10:18:34;5.23;;;4.73;;
14768;SDS011;7476;49.404;11.152;2024-02-16T10:21:02;8.53;;;5.10;;
14768;SDS011;7476;49.404;11.152;2024-02-16T10:23:28;6.17;;;5.30;;
14768;SDS011;7476;49.404;11.152;2024-02-16T10:25:55;6.63;;;4.80;;
14768;SDS011;7476;49.404;11.152;2024-02-16T10:28:24;5.23;;;4.73;;
14768;SDS011;7476;49.404;11.152;2024-02-16T10:30:56;6.83;;;4.97;;
14768;SDS011;7476;49.404;11.152;2024-02-16T10:33:26;5.67;;;4.80;;
14768;SDS011;7476;49.404;11.152;2024-02-16T10:35:54;4.87;;;4.37;;
14768;SDS011;7476;49.404;11.152;2024-02-16T10:38:22;5.13;;;4.37;;
14768;SDS011;7476;49.404;11.152;2024-02-16T10:40:49;5.53;;;4.40;;
14768;SDS011;7476;49.404;11.152;2024-02-16T10:43:17;5.27;;;4.77;;
14768;SDS011;7476;49.404;11.152;2024-02-16T10:45:46;5.10;;;4.60;;
14768;SDS011;7476;49.404;11.152;2024-02-16T10:48:17;5.73;;;4.50;;
14768;SDS011;7476;49.404;11.152;2024-02-16T10:50:44;6.50;;;4.77;;
14768;SDS011;7476;49.404;11.152;2024-02-16T10:53:14;5.73;;;4.90;;
14768;SDS011;7476;49.404;11.152;2024-02-16T10:55:46;5.70;;;4.53;;
14768;SDS011;7476;49.404;11.152;2024-02-16T10:58:13;6.50;;;4.43;;
14768;SDS011;7476;49.404;11.152;2024-02-16T11:00:49;4.63;;;4.03;;
14768;SDS011;7476;49.404;11.152;2024-02-16T11:03:17;5.47;;;4.97;;
14768;SDS011;7476;49.404;11.152;2024-02-16T11:05:48;6.70;;;5.03;;
14768;SDS011;7476;49.404;11.152;2024-02-16T11:08:16;6.67;;;4.70;;
14768;SDS011;7476;49.404;11.152;2024-02-16T11:10:54;5.97;;;4.60;;
14768;SDS011;7476;49.404;11.152;2024-02-16T11:13:22;5.87;;;4.30;;
14768;SDS011;7476;49.404;11.152;2024-02-16T11:15:55;5.67;;;4.10;;
14768;SDS011;7476;49.404;11.152;2024-02-16T11:18:22;5.40;;;4.40;;
14768;SDS011;7476;49.404;11.152;2024-02-16T11:20:49;6.50;;;4.70;;
14768;SDS011;7476;49.404;11.152;2024-02-16T11:23:17;5.30;;;4.50;;
14768;SDS011;7476;49.404;11.152;2024-02-16T11:25:50;5.30;;;4.47;;
14768;SDS011;7476;49.404;11.152;2024-02-16T11:28:17;4.80;;;4.30;;
14768;SDS011;7476;49.404;11.152;2024-02-16T11:30:45;4.83;;;4.20;;
14768;SDS011;7476;49.404;11.152;2024-02-16T11:33:11;5.77;;;4.33;;
14768;SDS011;7476;49.404;11.152;2024-02-16T11:35:39;6.67;;;4.37;;
14768;SDS011;7476;49.404;11.152;2024-02-16T11:38:06;6.70;;;4.13;;
14768;SDS011;7476;49.404;11.152;2024-02-16T11:40:34;4.53;;;4.03;;
14768;SDS011;7476;49.404;11.152;2024-02-16T11:43:01;5.30;;;4.03;;
14768;SDS011;7476;49.404;11.152;2024-02-16T11:45:28;8.20;;;4.60;;
14768;SDS011;7476;49.404;11.152;2024-02-16T11:48:04;4.97;;;4.00;;
14768;SDS011;7476;49.404;11.152;2024-02-16T11:50:32;6.03;;;4.03;;
14768;SDS011;7476;49.404;11.152;2024-02-16T11:52:59;4.30;;;3.90;;
14768;SDS011;7476;49.404;11.152;2024-02-16T11:55:25;5.47;;;4.50;;
14768;SDS011;7476;49.404;11.152;2024-02-16T11:57:53;5.77;;;4.50;;
14768;SDS011;7476;49.404;11.152;2024-02-16T12:00:21;5.70;;;4.97;;
14768;SDS011;7476;49.404;11.152;2024-02-16T12:02:58;5.63;;;4.53;;
14768;SDS011;7476;49.404;11.152;2024-02-16T12:05:25;5.87;;;4.80;;
14768;SDS011;7476;49.404;11.152;2024-02-16T12:07:51;4.77;;;4.27;;
14768;SDS011;7476;49.404;11.152;2024-02-16T12:10:18;6.27;;;4.87;;
14768;SDS011;7476;49.404;11.152;2024-02-16T12:12:45;6.50;;;4.87;;
14768;SDS011;7476;49.404;11.152;2024-02-16T12:15:14;6.17;;;5.13;;
14768;SDS011;7476;49.404;11.152;2024-02-16T12:17:43;5.20;;;4.60;;
14768;SDS011;7476;49.404;11.152;2024-02-16T12:20:11;5.10;;;4.60;;
14768;SDS011;7476;49.404;11.152;2024-02-16T12:22:38;5.13;;;4.57;;
14768;SDS011;7476;49.404;11.152;2024-02-16T12:25:05;9.57;;;4.97;;
14768;SDS011;7476;49.404;11.152;2024-02-16T12:27:32;6.50;;;4.90;;
14768;SDS011;7476;49.404;11.152;2024-02-16T12:29:59;4.80;;;4.30;;
14768;SDS011;7476;49.404;11.152;2024-02-16T12:32:27;5.63;;;4.43;;
14768;SDS011;7476;49.404;11.152;2024-02-16T12:34:53;6.07;;;4.70;;
14768;SDS011;7476;49.404;11.152;2024-02-16T12:37:22;7.03;;;4.60;;
14768;SDS011;7476;49.404;11.152;2024-02-16T12:39:49;5.80;;;4.67;;
14768;SDS011;7476;49.404;11.152;2024-02-16T12:42:16;5.27;;;4.53;;
14768;SDS011;7476;49.404;11.152;2024-02-16T12:44:43;5.37;;;4.87;;
14768;SDS011;7476;49.404;11.152;2024-02-16T12:47:09;5.80;;;4.97;;
14768;SDS011;7476;49.404;11.152;2024-02-16T12:49:37;5.63;;;4.47;;
14768;SDS011;7476;49.404;11.152;2024-02-16T12:52:04;5.57;;;4.87;;
14768;SDS011;7476;49.404;11.152;2024-02-16T12:54:31;5.90;;;5.30;;
14768;SDS011;7476;49.404;11.152;2024-02-16T12:56:58;6.67;;;4.83;;
14768;SDS011;7476;49.404;11.152;2024-02-16T12:59:25;5.60;;;4.57;;
14768;SDS011;7476;49.404;11.152;2024-02-16T13:01:51;5.77;;;4.53;;
14768;SDS011;7476;49.404;11.152;2024-02-16T13:04:18;6.30;;;4.50;;
14768;SDS011;7476;49.404;11.152;2024-02-16T13:06:49;6.17;;;4.60;;
14768;SDS011;7476;49.404;11.152;2024-02-16T13:09:17;5.33;;;4.60;;
14768;SDS011;7476;49.404;11.152;2024-02-16T13:11:43;6.67;;;4.67;;
14768;SDS011;7476;49.404;11.152;2024-02-16T13:14:10;5.10;;;4.60;;
14768;SDS011;7476;49.404;11.152;2024-02-16T13:16:37;7.23;;;5.07;;
14768;SDS011;7476;49.404;11.152;2024-02-16T13:19:03;6.53;;;4.77;;
14768;SDS011;7476;49.404;11.152;2024-02-16T13:21:30;7.37;;;5.30;;
14768;SDS011;7476;49.404;11.152;2024-02-16T13:23:58;6.17;;;4.70;;
14768;SDS011;7476;49.404;11.152;2024-02-16T13:26:25;5.00;;;4.50;;
14768;SDS011;7476;49.404;11.152;2024-02-16T13:28:51;5.37;;;4.17;;
14768;SDS011;7476;49.404;11.152;2024-02-16T13:31:19;6.07;;;4.27;;
14768;SDS011;7476;49.404;11.152;2024-02-16T13:33:46;5.93;;;4.20;;
14768;SDS011;7476;49.404;11.152;2024-02-16T13:36:13;4.33;;;3.93;;
14768;SDS011;7476;49.404;11.152;2024-02-16T13:38:39;5.70;;;4.53;;
14768;SDS011;7476;49.404;11.152;2024-02-16T13:41:07;5.87;;;4.47;;
14768;SDS011;7476;49.404;11.152;2024-02-16T13:43:34;5.73;;;4.80;;
14768;SDS011;7476;49.404;11.152;2024-02-16T13:46:01;5.73;;;4.40;;
14768;SDS011;7476;49.404;11.152;2024-02-16T13:48:28;5.07;;;4.57;;
14768;SDS011;7476;49.404;11.152;2024-02-16T13:50:56;6.77;;;4.40;;
14768;SDS011;7476;49.404;11.152;2024-02-16T13:53:23;5.93;;;4.67;;
14768;SDS011;7476;49.404;11.152;2024-02-16T13:55:50;4.80;;;4.30;;
14768;SDS011;7476;49.404;11.152;2024-02-16T13:58:17;6.53;;;4.83;;
14768;SDS011;7476;49.404;11.152;2024-02-16T14:00:44;5.30;;;4.80;;
14768;SDS011;7476;49.404;11.152;2024-02-16T14:03:12;5.67;;;5.03;;
14768;SDS011;7476;49.404;11.152;2024-02-16T14:05:40;5.50;;;5.00;;
14768;SDS011;7476;49.404;11.152;2024-02-16T14:08:09;5.27;;;4.13;;
14768;SDS011;7476;49.404;11.152;2024-02-16T14:10:37;5.57;;;4.33;;
14768;SDS011;7476;49.404;11.152;2024-02-16T14:13:04;6.20;;;4.40;;
14768;SDS011;7476;49.404;11.152;2024-02-16T14:15:32;4.97;;;4.50;;
14768;SDS011;7476;49.404;11.152;2024-02-16T14:17:59;5.27;;;4.77;;
14768;SDS011;7476;49.404;11.152;2024-02-16T14:20:26;6.83;;;5.07;;
14768;SDS011;7476;49.404;11.152;2024-02-16T14:22:52;6.00;;;4.80;;
14768;SDS011;7476;49.404;11.152;2024-02-16T14:25:19;6.40;;;5.00;;
14768;SDS011;7476;49.404;11.152;2024-02-16T14:27:46;6.77;;;5.10;;
14768;SDS011;7476;49.404;11.152;2024-02-16T14:30:13;5.60;;;5.00;;
14768;SDS011;7476;49.404;11.152;2024-02-16T14:32:41;7.23;;;4.80;;
14768;SDS011;7476;49.404;11.152;2024-02-16T14:35:07;5.80;;;5.20;;
14768;SDS011;7476;49.404;11.152;2024-02-16T14:37:35;6.80;;;4.60;;
14768;SDS011;7476;49.404;11.152;2024-02-16T14:40:03;7.53;;;4.83;;
14768;SDS011;7476;49.404;11.152;2024-02-16T14:42:35;5.57;;;4.13;;
14768;SDS011;7476;49.404;11.152;2024-02-16T14:45:02;5.83;;;4.13;;